sensor_id;sensor_type;location;lat;lon;timestamp;P1;durP1;ratioP1;P2;durP2;ratioP2
69917;SDS011;57203;42.672;23.334;2023-06-14T00:00:58;9.4;;;6.6;;
69917;SDS011;57203;42.672;23.334;2023-06-14T00:01:58;11.5;;;7.2;;
69917;SDS011;57203;42.672;23.334;2023-06-14T00:02:58;9.8;;;6.5;;
69917;SDS011;57203;42.672;23.334;2023-06-14T00:03:58;9.8;;;6.9;;
69917;SDS011;57203;42.672;23.334;2023-06-14T00:04:59;11.9;;;6.4;;
69917;SDS011;57203;42.672;23.334;2023-06-14T00:05:59;7.9;;;6.0;;
69917;SDS011;57203;42.672;23.334;2023-06-14T00:06:59;7.9;;;6.4;;
69917;SDS011;57203;42.672;23.334;2023-06-14T00:07:59;9.3;;;6.9;;
69917;SDS011;57203;42.672;23.334;2023-06-14T00:09:00;9.3;;;6.8;;
69917;SDS011;57203;42.672;23.334;2023-06-14T00:10:00;12.0;;;6.0;;
69917;SDS011;57203;42.672;23.334;2023-06-14T00:12:00;7.4;;;5.7;;
69917;SDS011;57203;42.672;23.334;2023-06-14T00:13:00;8.7;;;6.2;;
69917;SDS011;57203;42.672;23.334;2023-06-14T00:14:01;8.7;;;6.0;;
69917;SDS011;57203;42.672;23.334;2023-06-14T00:15:01;7.7;;;6.4;;
69917;SDS011;57203;42.672;23.334;2023-06-14T00:16:01;7.7;;;5.9;;
69917;SDS011;57203;42.672;23.334;2023-06-14T00:17:01;7.3;;;5.3;;
69917;SDS011;57203;42.672;23.334;2023-06-14T00:18:02;6.9;;;5.5;;
69917;SDS011;57203;42.672;23.334;2023-06-14T00:19:02;8.1;;;5.6;;
69917;SDS011;57203;42.672;23.334;2023-06-14T00:20:03;8.7;;;5.4;;
69917;SDS011;57203;42.672;23.334;2023-06-14T00:21:02;8.2;;;5.5;;
69917;SDS011;57203;42.672;23.334;2023-06-14T00:22:03;8.2;;;5.6;;
69917;SDS011;57203;42.672;23.334;2023-06-14T00:23:03;6.9;;;5.3;;
69917;SDS011;57203;42.672;23.334;2023-06-14T00:24:03;6.4;;;5.2;;
69917;SDS011;57203;42.672;23.334;2023-06-14T00:25:03;6.4;;;5.5;;
69917;SDS011;57203;42.672;23.334;2023-06-14T00:26:03;8.4;;;5.0;;
69917;SDS011;57203;42.672;23.334;2023-06-14T00:27:04;6.9;;;4.9;;
69917;SDS011;57203;42.672;23.334;2023-06-14T00:28:04;6.9;;;5.6;;
69917;SDS011;57203;42.672;23.334;2023-06-14T00:29:04;8.8;;;5.1;;
69917;SDS011;57203;42.672;23.334;2023-06-14T00:30:05;6.1;;;5.3;;
69917;SDS011;57203;42.672;23.334;2023-06-14T00:31:05;5.9;;;4.7;;
69917;SDS011;57203;42.672;23.334;2023-06-14T00:32:05;6.5;;;5.0;;
69917;SDS011;57203;42.672;23.334;2023-06-14T00:33:05;6.9;;;5.2;;
69917;SDS011;57203;42.672;23.334;2023-06-14T00:35:06;9.1;;;5.0;;
69917;SDS011;57203;42.672;23.334;2023-06-14T00:36:06;6.3;;;5.1;;
69917;SDS011;57203;42.672;23.334;2023-06-14T00:38:06;8.3;;;4.9;;
69917;SDS011;57203;42.672;23.334;2023-06-14T00:39:06;6.2;;;4.7;;
69917;SDS011;57203;42.672;23.334;2023-06-14T00:40:07;7.8;;;5.0;;
69917;SDS011;57203;42.672;23.334;2023-06-14T00:41:07;7.8;;;4.9;;
69917;SDS011;57203;42.672;23.334;2023-06-14T00:42:07;7.4;;;5.5;;
69917;SDS011;57203;42.672;23.334;2023-06-14T00:43:07;7.0;;;5.2;;
69917;SDS011;57203;42.672;23.334;2023-06-14T00:44:07;8.1;;;5.3;;
69917;SDS011;57203;42.672;23.334;2023-06-14T00:45:08;8.5;;;5.1;;
69917;SDS011;57203;42.672;23.334;2023-06-14T00:46:08;8.5;;;4.9;;
69917;SDS011;57203;42.672;23.334;2023-06-14T00:47:08;7.2;;;4.8;;
69917;SDS011;57203;42.672;23.334;2023-06-14T00:49:09;5.9;;;4.6;;
69917;SDS011;57203;42.672;23.334;2023-06-14T00:51:09;7.3;;;4.9;;
69917;SDS011;57203;42.672;23.334;2023-06-14T00:52:09;6.3;;;5.1;;
69917;SDS011;57203;42.672;23.334;2023-06-14T00:53:09;6.8;;;4.8;;
69917;SDS011;57203;42.672;23.334;2023-06-14T00:54:10;7.5;;;5.0;;
69917;SDS011;57203;42.672;23.334;2023-06-14T00:55:10;7.5;;;5.1;;
69917;SDS011;57203;42.672;23.334;2023-06-14T00:56:10;5.8;;;5.4;;
69917;SDS011;57203;42.672;23.334;2023-06-14T00:57:10;7.1;;;5.1;;
69917;SDS011;57203;42.672;23.334;2023-06-14T00:58:11;7.1;;;4.9;;
69917;SDS011;57203;42.672;23.334;2023-06-14T00:59:11;7.2;;;4.7;;
69917;SDS011;57203;42.672;23.334;2023-06-14T01:00:11;7.2;;;4.9;;
69917;SDS011;57203;42.672;23.334;2023-06-14T01:01:11;7.2;;;4.3;;
69917;SDS011;57203;42.672;23.334;2023-06-14T01:02:12;7.4;;;4.8;;
69917;SDS011;57203;42.672;23.334;2023-06-14T01:03:12;7.2;;;4.7;;
69917;SDS011;57203;42.672;23.334;2023-06-14T01:04:12;5.9;;;5.0;;
69917;SDS011;57203;42.672;23.334;2023-06-14T01:05:12;7.4;;;4.9;;
69917;SDS011;57203;42.672;23.334;2023-06-14T01:07:15;7.3;;;4.5;;
69917;SDS011;57203;42.672;23.334;2023-06-14T01:08:15;5.8;;;4.6;;
69917;SDS011;57203;42.672;23.334;2023-06-14T01:09:15;5.5;;;4.4;;
69917;SDS011;57203;42.672;23.334;2023-06-14T01:10:17;5.5;;;4.6;;
69917;SDS011;57203;42.672;23.334;2023-06-14T01:11:16;6.9;;;4.1;;
69917;SDS011;57203;42.672;23.334;2023-06-14T01:12:15;7.0;;;4.4;;
69917;SDS011;57203;42.672;23.334;2023-06-14T01:13:15;7.0;;;4.6;;
69917;SDS011;57203;42.672;23.334;2023-06-14T01:14:14;8.4;;;4.5;;
69917;SDS011;57203;42.672;23.334;2023-06-14T01:15:14;6.1;;;4.4;;
69917;SDS011;57203;42.672;23.334;2023-06-14T01:20:15;5.3;;;4.6;;
69917;SDS011;57203;42.672;23.334;2023-06-14T01:22:16;8.1;;;4.5;;
69917;SDS011;57203;42.672;23.334;2023-06-14T01:23:16;6.3;;;5.1;;
69917;SDS011;57203;42.672;23.334;2023-06-14T01:24:16;7.3;;;5.2;;
69917;SDS011;57203;42.672;23.334;2023-06-14T01:25:16;6.4;;;5.0;;
69917;SDS011;57203;42.672;23.334;2023-06-14T01:28:18;6.2;;;4.7;;
69917;SDS011;57203;42.672;23.334;2023-06-14T01:29:17;6.0;;;5.0;;
69917;SDS011;57203;42.672;23.334;2023-06-14T01:30:18;9.5;;;4.2;;
69917;SDS011;57203;42.672;23.334;2023-06-14T01:31:19;5.5;;;4.7;;
69917;SDS011;57203;42.672;23.334;2023-06-14T01:32:18;5.5;;;4.9;;
69917;SDS011;57203;42.672;23.334;2023-06-14T01:33:19;8.2;;;5.2;;
69917;SDS011;57203;42.672;23.334;2023-06-14T01:34:19;8.2;;;4.8;;
69917;SDS011;57203;42.672;23.334;2023-06-14T01:37:19;8.0;;;4.3;;
69917;SDS011;57203;42.672;23.334;2023-06-14T01:38:20;6.3;;;4.8;;
69917;SDS011;57203;42.672;23.334;2023-06-14T01:40:20;7.0;;;5.0;;
69917;SDS011;57203;42.672;23.334;2023-06-14T01:41:20;8.2;;;4.7;;
69917;SDS011;57203;42.672;23.334;2023-06-14T01:42:20;6.5;;;4.9;;
69917;SDS011;57203;42.672;23.334;2023-06-14T01:43:20;6.4;;;4.6;;
69917;SDS011;57203;42.672;23.334;2023-06-14T01:44:21;5.7;;;4.9;;
69917;SDS011;57203;42.672;23.334;2023-06-14T01:45:21;5.7;;;4.7;;
69917;SDS011;57203;42.672;23.334;2023-06-14T01:46:21;8.9;;;5.0;;
69917;SDS011;57203;42.672;23.334;2023-06-14T01:47:21;9.7;;;5.4;;
69917;SDS011;57203;42.672;23.334;2023-06-14T01:48:22;9.7;;;5.2;;
69917;SDS011;57203;42.672;23.334;2023-06-14T01:49:22;6.7;;;5.8;;
69917;SDS011;57203;42.672;23.334;2023-06-14T01:50:22;8.9;;;5.2;;
69917;SDS011;57203;42.672;23.334;2023-06-14T01:52:22;10.6;;;6.1;;
69917;SDS011;57203;42.672;23.334;2023-06-14T01:53:23;10.6;;;5.9;;
69917;SDS011;57203;42.672;23.334;2023-06-14T01:54:23;7.7;;;6.0;;
69917;SDS011;57203;42.672;23.334;2023-06-14T01:55:23;7.9;;;5.4;;
69917;SDS011;57203;42.672;23.334;2023-06-14T01:56:23;9.0;;;5.7;;
69917;SDS011;57203;42.672;23.334;2023-06-14T01:57:24;9.0;;;5.8;;
69917;SDS011;57203;42.672;23.334;2023-06-14T01:58:24;9.1;;;6.0;;
69917;SDS011;57203;42.672;23.334;2023-06-14T01:59:24;9.1;;;5.9;;
69917;SDS011;57203;42.672;23.334;2023-06-14T02:00:24;9.0;;;6.1;;
69917;SDS011;57203;42.672;23.334;2023-06-14T02:01:24;9.2;;;6.2;;
69917;SDS011;57203;42.672;23.334;2023-06-14T02:02:25;7.3;;;5.9;;
69917;SDS011;57203;42.672;23.334;2023-06-14T02:04:25;7.2;;;6.1;;
69917;SDS011;57203;42.672;23.334;2023-06-14T02:05:25;7.3;;;5.9;;
69917;SDS011;57203;42.672;23.334;2023-06-14T02:06:26;9.2;;;6.4;;
69917;SDS011;57203;42.672;23.334;2023-06-14T02:07:26;8.6;;;6.8;;
69917;SDS011;57203;42.672;23.334;2023-06-14T02:08:26;8.6;;;6.4;;
69917;SDS011;57203;42.672;23.334;2023-06-14T02:09:26;9.3;;;6.6;;
69917;SDS011;57203;42.672;23.334;2023-06-14T02:10:26;8.1;;;6.2;;
69917;SDS011;57203;42.672;23.334;2023-06-14T02:11:27;8.5;;;5.5;;
69917;SDS011;57203;42.672;23.334;2023-06-14T02:12:27;8.6;;;5.7;;
69917;SDS011;57203;42.672;23.334;2023-06-14T02:13:27;6.6;;;5.2;;
69917;SDS011;57203;42.672;23.334;2023-06-14T02:14:27;6.6;;;5.9;;
69917;SDS011;57203;42.672;23.334;2023-06-14T02:15:28;8.9;;;5.6;;
69917;SDS011;57203;42.672;23.334;2023-06-14T02:16:28;7.1;;;5.4;;
69917;SDS011;57203;42.672;23.334;2023-06-14T02:17:28;6.9;;;5.2;;
69917;SDS011;57203;42.672;23.334;2023-06-14T02:18:28;6.8;;;5.9;;
69917;SDS011;57203;42.672;23.334;2023-06-14T02:19:29;7.8;;;5.3;;
69917;SDS011;57203;42.672;23.334;2023-06-14T02:20:29;6.1;;;5.7;;
69917;SDS011;57203;42.672;23.334;2023-06-14T02:21:29;8.5;;;5.8;;
69917;SDS011;57203;42.672;23.334;2023-06-14T02:22:29;8.5;;;6.2;;
69917;SDS011;57203;42.672;23.334;2023-06-14T02:23:29;8.9;;;6.0;;
69917;SDS011;57203;42.672;23.334;2023-06-14T02:24:30;8.9;;;5.8;;
69917;SDS011;57203;42.672;23.334;2023-06-14T02:25:30;8.1;;;6.4;;
69917;SDS011;57203;42.672;23.334;2023-06-14T02:26:30;9.5;;;6.1;;
69917;SDS011;57203;42.672;23.334;2023-06-14T02:27:30;9.3;;;6.3;;
69917;SDS011;57203;42.672;23.334;2023-06-14T02:28:30;9.3;;;6.0;;
69917;SDS011;57203;42.672;23.334;2023-06-14T02:29:31;9.7;;;5.3;;
69917;SDS011;57203;42.672;23.334;2023-06-14T02:30:31;7.2;;;6.6;;
69917;SDS011;57203;42.672;23.334;2023-06-14T02:31:31;8.7;;;6.2;;
69917;SDS011;57203;42.672;23.334;2023-06-14T02:32:31;7.5;;;6.4;;
69917;SDS011;57203;42.672;23.334;2023-06-14T02:33:31;11.6;;;6.5;;
69917;SDS011;57203;42.672;23.334;2023-06-14T02:34:32;11.6;;;6.6;;
69917;SDS011;57203;42.672;23.334;2023-06-14T02:35:32;8.4;;;5.8;;
69917;SDS011;57203;42.672;23.334;2023-06-14T02:36:32;7.8;;;6.4;;
69917;SDS011;57203;42.672;23.334;2023-06-14T02:37:32;8.5;;;6.0;;
69917;SDS011;57203;42.672;23.334;2023-06-14T02:38:33;8.2;;;6.5;;
69917;SDS011;57203;42.672;23.334;2023-06-14T02:39:33;8.2;;;6.3;;
69917;SDS011;57203;42.672;23.334;2023-06-14T02:41:33;8.4;;;6.4;;
69917;SDS011;57203;42.672;23.334;2023-06-14T02:42:33;9.3;;;6.2;;
69917;SDS011;57203;42.672;23.334;2023-06-14T02:43:34;9.3;;;6.7;;
69917;SDS011;57203;42.672;23.334;2023-06-14T02:44:34;8.1;;;6.6;;
69917;SDS011;57203;42.672;23.334;2023-06-14T02:45:34;9.4;;;6.7;;
69917;SDS011;57203;42.672;23.334;2023-06-14T02:46:34;9.3;;;6.6;;
69917;SDS011;57203;42.672;23.334;2023-06-14T02:48:35;8.1;;;6.9;;
69917;SDS011;57203;42.672;23.334;2023-06-14T02:49:35;9.4;;;6.4;;
69917;SDS011;57203;42.672;23.334;2023-06-14T02:50:35;9.4;;;7.0;;
69917;SDS011;57203;42.672;23.334;2023-06-14T02:51:35;8.4;;;6.6;;
69917;SDS011;57203;42.672;23.334;2023-06-14T02:53:36;9.4;;;6.5;;
69917;SDS011;57203;42.672;23.334;2023-06-14T02:55:36;8.7;;;6.6;;
69917;SDS011;57203;42.672;23.334;2023-06-14T02:56:36;9.0;;;6.5;;
69917;SDS011;57203;42.672;23.334;2023-06-14T02:57:37;10.3;;;7.0;;
69917;SDS011;57203;42.672;23.334;2023-06-14T02:58:37;8.4;;;6.9;;
69917;SDS011;57203;42.672;23.334;2023-06-14T02:59:37;9.5;;;7.2;;
69917;SDS011;57203;42.672;23.334;2023-06-14T03:01:38;9.8;;;6.4;;
69917;SDS011;57203;42.672;23.334;2023-06-14T03:02:38;9.8;;;6.2;;
69917;SDS011;57203;42.672;23.334;2023-06-14T03:03:38;9.8;;;6.5;;
69917;SDS011;57203;42.672;23.334;2023-06-14T03:05:39;8.1;;;6.7;;
69917;SDS011;57203;42.672;23.334;2023-06-14T03:06:39;9.6;;;6.2;;
69917;SDS011;57203;42.672;23.334;2023-06-14T03:07:39;8.2;;;6.9;;
69917;SDS011;57203;42.672;23.334;2023-06-14T03:08:39;9.8;;;7.0;;
69917;SDS011;57203;42.672;23.334;2023-06-14T03:09:39;9.2;;;7.2;;
69917;SDS011;57203;42.672;23.334;2023-06-14T03:10:40;10.5;;;7.8;;
69917;SDS011;57203;42.672;23.334;2023-06-14T03:11:40;9.9;;;7.3;;
69917;SDS011;57203;42.672;23.334;2023-06-14T03:12:40;9.9;;;7.2;;
69917;SDS011;57203;42.672;23.334;2023-06-14T03:13:40;10.7;;;7.1;;
69917;SDS011;57203;42.672;23.334;2023-06-14T03:15:41;9.7;;;7.0;;
69917;SDS011;57203;42.672;23.334;2023-06-14T03:16:41;10.0;;;6.9;;
69917;SDS011;57203;42.672;23.334;2023-06-14T03:17:41;8.9;;;7.1;;
69917;SDS011;57203;42.672;23.334;2023-06-14T03:18:41;10.5;;;7.3;;
69917;SDS011;57203;42.672;23.334;2023-06-14T03:19:41;10.5;;;7.1;;
69917;SDS011;57203;42.672;23.334;2023-06-14T03:20:42;10.2;;;6.9;;
69917;SDS011;57203;42.672;23.334;2023-06-14T03:21:42;13.7;;;7.5;;
69917;SDS011;57203;42.672;23.334;2023-06-14T03:23:42;11.1;;;7.3;;
69917;SDS011;57203;42.672;23.334;2023-06-14T03:24:42;10.3;;;6.6;;
69917;SDS011;57203;42.672;23.334;2023-06-14T03:25:43;9.6;;;7.2;;
69917;SDS011;57203;42.672;23.334;2023-06-14T03:26:43;10.1;;;6.9;;
69917;SDS011;57203;42.672;23.334;2023-06-14T03:27:43;9.9;;;7.2;;
69917;SDS011;57203;42.672;23.334;2023-06-14T03:28:43;9.9;;;7.1;;
69917;SDS011;57203;42.672;23.334;2023-06-14T03:29:44;9.3;;;7.0;;
69917;SDS011;57203;42.672;23.334;2023-06-14T03:30:44;9.3;;;7.4;;
69917;SDS011;57203;42.672;23.334;2023-06-14T03:32:44;9.1;;;7.0;;
69917;SDS011;57203;42.672;23.334;2023-06-14T03:33:44;12.3;;;7.6;;
69917;SDS011;57203;42.672;23.334;2023-06-14T03:34:45;12.3;;;7.1;;
69917;SDS011;57203;42.672;23.334;2023-06-14T03:35:45;9.1;;;6.8;;
69917;SDS011;57203;42.672;23.334;2023-06-14T03:36:45;10.7;;;6.9;;
69917;SDS011;57203;42.672;23.334;2023-06-14T03:37:45;8.7;;;6.8;;
69917;SDS011;57203;42.672;23.334;2023-06-14T03:38:45;8.7;;;7.5;;
69917;SDS011;57203;42.672;23.334;2023-06-14T03:39:46;10.3;;;7.1;;
69917;SDS011;57203;42.672;23.334;2023-06-14T03:40:46;10.9;;;7.4;;
69917;SDS011;57203;42.672;23.334;2023-06-14T03:41:46;10.5;;;7.7;;
69917;SDS011;57203;42.672;23.334;2023-06-14T03:42:47;9.7;;;7.4;;
69917;SDS011;57203;42.672;23.334;2023-06-14T03:43:47;9.7;;;7.3;;
69917;SDS011;57203;42.672;23.334;2023-06-14T03:44:47;10.2;;;7.4;;
69917;SDS011;57203;42.672;23.334;2023-06-14T03:45:47;11.6;;;8.1;;
69917;SDS011;57203;42.672;23.334;2023-06-14T03:46:47;11.5;;;8.0;;
69917;SDS011;57203;42.672;23.334;2023-06-14T03:47:47;11.9;;;7.4;;
69917;SDS011;57203;42.672;23.334;2023-06-14T03:48:48;9.7;;;6.9;;
69917;SDS011;57203;42.672;23.334;2023-06-14T03:49:48;8.7;;;6.4;;
69917;SDS011;57203;42.672;23.334;2023-06-14T03:50:48;10.2;;;7.6;;
69917;SDS011;57203;42.672;23.334;2023-06-14T03:51:48;9.3;;;7.3;;
69917;SDS011;57203;42.672;23.334;2023-06-14T03:52:49;8.9;;;7.4;;
69917;SDS011;57203;42.672;23.334;2023-06-14T03:53:49;9.2;;;7.0;;
69917;SDS011;57203;42.672;23.334;2023-06-14T03:54:49;9.5;;;7.5;;
69917;SDS011;57203;42.672;23.334;2023-06-14T03:55:49;9.7;;;7.2;;
69917;SDS011;57203;42.672;23.334;2023-06-14T03:56:49;11.4;;;7.6;;
69917;SDS011;57203;42.672;23.334;2023-06-14T03:58:50;10.9;;;6.9;;
69917;SDS011;57203;42.672;23.334;2023-06-14T03:59:50;10.9;;;7.2;;
69917;SDS011;57203;42.672;23.334;2023-06-14T04:00:50;12.9;;;7.3;;
69917;SDS011;57203;42.672;23.334;2023-06-14T04:01:51;11.7;;;7.0;;
69917;SDS011;57203;42.672;23.334;2023-06-14T04:02:51;9.9;;;7.3;;
69917;SDS011;57203;42.672;23.334;2023-06-14T04:05:51;11.2;;;7.0;;
69917;SDS011;57203;42.672;23.334;2023-06-14T04:06:52;9.4;;;7.3;;
69917;SDS011;57203;42.672;23.334;2023-06-14T04:07:52;12.6;;;8.1;;
69917;SDS011;57203;42.672;23.334;2023-06-14T04:08:52;12.6;;;7.8;;
69917;SDS011;57203;42.672;23.334;2023-06-14T04:09:52;10.8;;;8.0;;
69917;SDS011;57203;42.672;23.334;2023-06-14T04:10:53;11.0;;;7.8;;
69917;SDS011;57203;42.672;23.334;2023-06-14T04:11:53;11.5;;;7.5;;
69917;SDS011;57203;42.672;23.334;2023-06-14T04:12:53;11.5;;;7.6;;
69917;SDS011;57203;42.672;23.334;2023-06-14T04:13:53;11.6;;;7.8;;
69917;SDS011;57203;42.672;23.334;2023-06-14T04:14:53;10.7;;;7.7;;
69917;SDS011;57203;42.672;23.334;2023-06-14T04:15:54;12.5;;;7.4;;
69917;SDS011;57203;42.672;23.334;2023-06-14T04:16:54;10.7;;;7.7;;
69917;SDS011;57203;42.672;23.334;2023-06-14T04:17:54;12.0;;;8.0;;
69917;SDS011;57203;42.672;23.334;2023-06-14T04:18:54;9.9;;;7.2;;
69917;SDS011;57203;42.672;23.334;2023-06-14T04:19:54;9.9;;;7.3;;
69917;SDS011;57203;42.672;23.334;2023-06-14T04:20:55;10.5;;;7.1;;
69917;SDS011;57203;42.672;23.334;2023-06-14T04:22:56;9.1;;;7.2;;
69917;SDS011;57203;42.672;23.334;2023-06-14T04:23:55;10.2;;;8.0;;
69917;SDS011;57203;42.672;23.334;2023-06-14T04:24:56;10.2;;;7.9;;
69917;SDS011;57203;42.672;23.334;2023-06-14T04:27:56;11.0;;;8.6;;
69917;SDS011;57203;42.672;23.334;2023-06-14T04:28:56;12.3;;;8.0;;
69917;SDS011;57203;42.672;23.334;2023-06-14T04:29:56;12.0;;;8.1;;
69917;SDS011;57203;42.672;23.334;2023-06-14T04:31:57;12.3;;;8.3;;
69917;SDS011;57203;42.672;23.334;2023-06-14T04:32:57;13.6;;;8.9;;
69917;SDS011;57203;42.672;23.334;2023-06-14T04:33:58;13.6;;;7.8;;
69917;SDS011;57203;42.672;23.334;2023-06-14T04:34:58;11.7;;;8.4;;
69917;SDS011;57203;42.672;23.334;2023-06-14T04:35:58;11.3;;;8.5;;
69917;SDS011;57203;42.672;23.334;2023-06-14T04:36:58;11.1;;;8.1;;
69917;SDS011;57203;42.672;23.334;2023-06-14T04:37:58;11.0;;;8.3;;
69917;SDS011;57203;42.672;23.334;2023-06-14T04:38:58;12.5;;;8.1;;
69917;SDS011;57203;42.672;23.334;2023-06-14T04:39:59;10.4;;;7.9;;
69917;SDS011;57203;42.672;23.334;2023-06-14T04:40:59;11.1;;;7.6;;
69917;SDS011;57203;42.672;23.334;2023-06-14T04:41:59;10.4;;;8.3;;
69917;SDS011;57203;42.672;23.334;2023-06-14T04:42:59;12.1;;;8.2;;
69917;SDS011;57203;42.672;23.334;2023-06-14T04:44:00;9.8;;;7.6;;
69917;SDS011;57203;42.672;23.334;2023-06-14T04:45:00;9.8;;;8.2;;
69917;SDS011;57203;42.672;23.334;2023-06-14T04:47:00;10.5;;;8.1;;
69917;SDS011;57203;42.672;23.334;2023-06-14T04:48:00;10.4;;;7.9;;
69917;SDS011;57203;42.672;23.334;2023-06-14T04:49:00;10.4;;;8.0;;
69917;SDS011;57203;42.672;23.334;2023-06-14T04:50:01;12.0;;;7.6;;
69917;SDS011;57203;42.672;23.334;2023-06-14T04:51:01;13.1;;;7.7;;
69917;SDS011;57203;42.672;23.334;2023-06-14T04:52:01;11.5;;;7.4;;
69917;SDS011;57203;42.672;23.334;2023-06-14T04:53:01;10.0;;;7.8;;
69917;SDS011;57203;42.672;23.334;2023-06-14T04:54:02;10.0;;;7.7;;
69917;SDS011;57203;42.672;23.334;2023-06-14T04:55:02;11.2;;;7.5;;
69917;SDS011;57203;42.672;23.334;2023-06-14T04:57:03;11.6;;;7.9;;
69917;SDS011;57203;42.672;23.334;2023-06-14T04:58:03;11.6;;;7.8;;
69917;SDS011;57203;42.672;23.334;2023-06-14T04:59:03;10.2;;;7.3;;
69917;SDS011;57203;42.672;23.334;2023-06-14T05:00:03;10.0;;;7.4;;
69917;SDS011;57203;42.672;23.334;2023-06-14T05:01:03;16.8;;;12.0;;
69917;SDS011;57203;42.672;23.334;2023-06-14T05:02:03;16.8;;;7.8;;
69917;SDS011;57203;42.672;23.334;2023-06-14T05:03:04;12.9;;;7.9;;
69917;SDS011;57203;42.672;23.334;2023-06-14T05:04:04;11.7;;;7.0;;
69917;SDS011;57203;42.672;23.334;2023-06-14T05:05:04;11.0;;;7.6;;
69917;SDS011;57203;42.672;23.334;2023-06-14T05:06:04;10.5;;;6.9;;
69917;SDS011;57203;42.672;23.334;2023-06-14T05:07:06;10.4;;;7.3;;
69917;SDS011;57203;42.672;23.334;2023-06-14T05:08:05;9.6;;;7.4;;
69917;SDS011;57203;42.672;23.334;2023-06-14T05:09:05;11.0;;;7.3;;
69917;SDS011;57203;42.672;23.334;2023-06-14T05:10:06;11.0;;;7.6;;
69917;SDS011;57203;42.672;23.334;2023-06-14T05:11:05;11.4;;;8.0;;
69917;SDS011;57203;42.672;23.334;2023-06-14T05:12:06;11.4;;;8.1;;
69917;SDS011;57203;42.672;23.334;2023-06-14T05:13:06;12.2;;;8.5;;
69917;SDS011;57203;42.672;23.334;2023-06-14T05:14:06;14.0;;;7.8;;
69917;SDS011;57203;42.672;23.334;2023-06-14T05:15:07;10.2;;;7.9;;
69917;SDS011;57203;42.672;23.334;2023-06-14T05:16:07;12.1;;;8.1;;
69917;SDS011;57203;42.672;23.334;2023-06-14T05:17:07;11.4;;;8.2;;
69917;SDS011;57203;42.672;23.334;2023-06-14T05:18:07;11.4;;;8.1;;
69917;SDS011;57203;42.672;23.334;2023-06-14T05:19:07;14.2;;;8.6;;
69917;SDS011;57203;42.672;23.334;2023-06-14T05:20:08;14.2;;;8.9;;
69917;SDS011;57203;42.672;23.334;2023-06-14T05:21:08;12.7;;;8.3;;
69917;SDS011;57203;42.672;23.334;2023-06-14T05:22:08;13.3;;;8.5;;
69917;SDS011;57203;42.672;23.334;2023-06-14T05:23:08;9.9;;;7.5;;
69917;SDS011;57203;42.672;23.334;2023-06-14T05:24:08;11.4;;;8.2;;
69917;SDS011;57203;42.672;23.334;2023-06-14T05:25:09;11.4;;;7.8;;
69917;SDS011;57203;42.672;23.334;2023-06-14T05:26:09;11.5;;;7.5;;
69917;SDS011;57203;42.672;23.334;2023-06-14T05:27:09;11.8;;;8.0;;
69917;SDS011;57203;42.672;23.334;2023-06-14T05:28:09;10.8;;;8.4;;
69917;SDS011;57203;42.672;23.334;2023-06-14T05:29:10;12.8;;;7.9;;
69917;SDS011;57203;42.672;23.334;2023-06-14T05:30:10;13.4;;;9.4;;
69917;SDS011;57203;42.672;23.334;2023-06-14T05:31:10;13.2;;;8.3;;
69917;SDS011;57203;42.672;23.334;2023-06-14T05:32:10;12.6;;;9.4;;
69917;SDS011;57203;42.672;23.334;2023-06-14T05:33:11;13.5;;;10.5;;
69917;SDS011;57203;42.672;23.334;2023-06-14T05:34:11;13.5;;;9.7;;
69917;SDS011;57203;42.672;23.334;2023-06-14T05:35:11;12.2;;;8.8;;
69917;SDS011;57203;42.672;23.334;2023-06-14T05:36:11;12.2;;;9.0;;
69917;SDS011;57203;42.672;23.334;2023-06-14T05:37:11;12.6;;;8.9;;
69917;SDS011;57203;42.672;23.334;2023-06-14T05:38:12;13.3;;;9.3;;
69917;SDS011;57203;42.672;23.334;2023-06-14T05:39:12;13.3;;;9.7;;
69917;SDS011;57203;42.672;23.334;2023-06-14T05:40:12;13.4;;;9.1;;
69917;SDS011;57203;42.672;23.334;2023-06-14T05:41:12;12.6;;;9.3;;
69917;SDS011;57203;42.672;23.334;2023-06-14T05:42:13;14.0;;;9.7;;
69917;SDS011;57203;42.672;23.334;2023-06-14T05:43:13;14.7;;;9.2;;
69917;SDS011;57203;42.672;23.334;2023-06-14T05:44:13;15.1;;;9.5;;
69917;SDS011;57203;42.672;23.334;2023-06-14T05:46:13;12.3;;;9.1;;
69917;SDS011;57203;42.672;23.334;2023-06-14T05:47:14;12.9;;;9.5;;
69917;SDS011;57203;42.672;23.334;2023-06-14T05:48:14;13.6;;;8.9;;
69917;SDS011;57203;42.672;23.334;2023-06-14T05:49:14;14.0;;;8.7;;
69917;SDS011;57203;42.672;23.334;2023-06-14T05:50:15;12.6;;;9.1;;
69917;SDS011;57203;42.672;23.334;2023-06-14T05:51:15;11.3;;;9.3;;
69917;SDS011;57203;42.672;23.334;2023-06-14T05:52:15;13.1;;;9.1;;
69917;SDS011;57203;42.672;23.334;2023-06-14T05:53:15;16.2;;;8.8;;
69917;SDS011;57203;42.672;23.334;2023-06-14T05:54:15;16.2;;;9.2;;
69917;SDS011;57203;42.672;23.334;2023-06-14T05:55:16;13.8;;;9.3;;
69917;SDS011;57203;42.672;23.334;2023-06-14T05:56:16;14.0;;;8.4;;
69917;SDS011;57203;42.672;23.334;2023-06-14T05:57:16;14.3;;;9.9;;
69917;SDS011;57203;42.672;23.334;2023-06-14T05:58:16;13.8;;;9.4;;
69917;SDS011;57203;42.672;23.334;2023-06-14T06:01:17;12.5;;;9.5;;
69917;SDS011;57203;42.672;23.334;2023-06-14T06:03:17;14.4;;;9.7;;
69917;SDS011;57203;42.672;23.334;2023-06-14T06:04:17;14.4;;;9.4;;
69917;SDS011;57203;42.672;23.334;2023-06-14T06:05:18;13.8;;;10.2;;
69917;SDS011;57203;42.672;23.334;2023-06-14T06:06:18;13.0;;;9.7;;
69917;SDS011;57203;42.672;23.334;2023-06-14T06:07:18;14.3;;;9.9;;
69917;SDS011;57203;42.672;23.334;2023-06-14T06:08:19;16.2;;;10.2;;
69917;SDS011;57203;42.672;23.334;2023-06-14T06:09:19;16.2;;;9.5;;
69917;SDS011;57203;42.672;23.334;2023-06-14T06:10:19;14.2;;;9.4;;
69917;SDS011;57203;42.672;23.334;2023-06-14T06:11:19;13.6;;;9.6;;
69917;SDS011;57203;42.672;23.334;2023-06-14T06:12:19;13.0;;;9.3;;
69917;SDS011;57203;42.672;23.334;2023-06-14T06:13:20;13.0;;;10.0;;
69917;SDS011;57203;42.672;23.334;2023-06-14T06:14:20;14.2;;;9.7;;
69917;SDS011;57203;42.672;23.334;2023-06-14T06:15:20;13.6;;;10.2;;
69917;SDS011;57203;42.672;23.334;2023-06-14T06:16:20;13.3;;;10.1;;
69917;SDS011;57203;42.672;23.334;2023-06-14T06:17:21;15.7;;;10.3;;
69917;SDS011;57203;42.672;23.334;2023-06-14T06:18:21;15.7;;;10.0;;
69917;SDS011;57203;42.672;23.334;2023-06-14T06:19:21;13.8;;;10.3;;
69917;SDS011;57203;42.672;23.334;2023-06-14T06:20:22;15.4;;;9.0;;
69917;SDS011;57203;42.672;23.334;2023-06-14T06:21:22;12.4;;;9.3;;
69917;SDS011;57203;42.672;23.334;2023-06-14T06:22:22;14.1;;;10.0;;
69917;SDS011;57203;42.672;23.334;2023-06-14T06:23:22;13.4;;;9.2;;
69917;SDS011;57203;42.672;23.334;2023-06-14T06:24:22;16.9;;;10.1;;
69917;SDS011;57203;42.672;23.334;2023-06-14T06:25:22;16.9;;;10.4;;
69917;SDS011;57203;42.672;23.334;2023-06-14T06:26:23;13.7;;;9.8;;
69917;SDS011;57203;42.672;23.334;2023-06-14T06:27:23;13.5;;;10.5;;
69917;SDS011;57203;42.672;23.334;2023-06-14T06:28:23;15.5;;;10.1;;
69917;SDS011;57203;42.672;23.334;2023-06-14T06:29:23;14.6;;;10.5;;
69917;SDS011;57203;42.672;23.334;2023-06-14T06:30:24;14.9;;;10.4;;
69917;SDS011;57203;42.672;23.334;2023-06-14T06:31:24;16.8;;;10.6;;
69917;SDS011;57203;42.672;23.334;2023-06-14T06:32:24;14.0;;;9.6;;
69917;SDS011;57203;42.672;23.334;2023-06-14T06:33:24;13.8;;;10.0;;
69917;SDS011;57203;42.672;23.334;2023-06-14T06:34:25;13.8;;;10.6;;
69917;SDS011;57203;42.672;23.334;2023-06-14T06:35:25;17.1;;;10.3;;
69917;SDS011;57203;42.672;23.334;2023-06-14T06:36:25;14.4;;;10.2;;
69917;SDS011;57203;42.672;23.334;2023-06-14T06:37:25;16.0;;;10.6;;
69917;SDS011;57203;42.672;23.334;2023-06-14T06:38:25;14.8;;;10.3;;
69917;SDS011;57203;42.672;23.334;2023-06-14T06:40:26;14.0;;;10.4;;
69917;SDS011;57203;42.672;23.334;2023-06-14T06:41:26;14.8;;;10.1;;
69917;SDS011;57203;42.672;23.334;2023-06-14T06:43:27;13.7;;;9.8;;
69917;SDS011;57203;42.672;23.334;2023-06-14T06:44:27;15.8;;;10.0;;
69917;SDS011;57203;42.672;23.334;2023-06-14T06:46:27;14.4;;;10.4;;
69917;SDS011;57203;42.672;23.334;2023-06-14T06:48:28;15.2;;;9.8;;
69917;SDS011;57203;42.672;23.334;2023-06-14T06:49:28;15.2;;;10.6;;